SAS2PC EDDM-EKCH
Flight info
| Callsign | SAS2PC |
|---|---|
| Flight time | 1h 3m |
| Altitude | 36000 |
| Route | INPUD2S INPUD Y102 UPALA M726 LASGA DCT BKD DCT LUWIL DCT BERIM/N0432F370 DCT MAKEL N851 GESKA Z711 MONAK |
| Aircraft | A320/M-SDE3FGHIRWY/LB1 |
Departure
| Time | 2026-05-05 17:59 |
|---|---|
| Airport | Munich Airport (EDDM) |
Arrival
| Time | 2026-05-05 19:03 |
|---|---|
| Airport | Copenhagen Kastrup Airport (EKCH) |
| Time | Latitude | Longitude | Altitude | Speed | Heading |
|---|---|---|---|---|---|
| 2026-05-05 17:17 | 48.35089 | 11.78349 | 1477 ft | 0 kts | 83° |
| 2026-05-05 17:41 | 48.35087 | 11.78321 | 1473 ft | 4 kts | 83° |
| 2026-05-05 17:41 | 48.35084 | 11.78287 | 1471 ft | 2 kts | 83° |
| 2026-05-05 17:42 | 48.35079 | 11.78250 | 1471 ft | 4 kts | 62° |
| 2026-05-05 17:42 | 48.35062 | 11.78221 | 1471 ft | 4 kts | 25° |
| 2026-05-05 17:42 | 48.35039 | 11.78214 | 1472 ft | 4 kts | 353° |
| 2026-05-05 17:42 | 48.35023 | 11.78217 | 1478 ft | 0 kts | 353° |
| 2026-05-05 17:46 | 48.35026 | 11.78217 | 1478 ft | 1 kts | 353° |
| 2026-05-05 17:46 | 48.35040 | 11.78214 | 1472 ft | 3 kts | 353° |
| 2026-05-05 17:46 | 48.35066 | 11.78210 | 1471 ft | 5 kts | 353° |
| 2026-05-05 17:47 | 48.35115 | 11.78201 | 1475 ft | 10 kts | 353° |
| 2026-05-05 17:47 | 48.35186 | 11.78178 | 1475 ft | 11 kts | 328° |
| 2026-05-05 17:47 | 48.35195 | 11.78061 | 1481 ft | 13 kts | 262° |
| 2026-05-05 17:47 | 48.35185 | 11.77918 | 1475 ft | 15 kts | 264° |
| 2026-05-05 17:48 | 48.35234 | 11.77802 | 1475 ft | 16 kts | 349° |
| 2026-05-05 17:48 | 48.35348 | 11.77782 | 1477 ft | 17 kts | 353° |
| 2026-05-05 17:48 | 48.35473 | 11.77760 | 1483 ft | 19 kts | 353° |
| 2026-05-05 17:48 | 48.35597 | 11.77739 | 1485 ft | 18 kts | 354° |
| 2026-05-05 17:49 | 48.35711 | 11.77720 | 1485 ft | 15 kts | 353° |
| 2026-05-05 17:49 | 48.35792 | 11.77705 | 1480 ft | 9 kts | 353° |
| 2026-05-05 17:49 | 48.35859 | 11.77694 | 1485 ft | 9 kts | 353° |
| 2026-05-05 17:49 | 48.35884 | 11.77690 | 1473 ft | 0 kts | 353° |
| 2026-05-05 17:52 | 48.35914 | 11.77685 | 1483 ft | 10 kts | 353° |
| 2026-05-05 17:53 | 48.36007 | 11.77668 | 1480 ft | 15 kts | 353° |
| 2026-05-05 17:53 | 48.36080 | 11.77739 | 1478 ft | 16 kts | 85° |
| 2026-05-05 17:53 | 48.36093 | 11.77911 | 1474 ft | 17 kts | 83° |
| 2026-05-05 17:53 | 48.36108 | 11.78103 | 1481 ft | 20 kts | 83° |
| 2026-05-05 17:54 | 48.36125 | 11.78317 | 1477 ft | 22 kts | 83° |
| 2026-05-05 17:54 | 48.36144 | 11.78549 | 1483 ft | 23 kts | 84° |
| 2026-05-05 17:54 | 48.36163 | 11.78798 | 1475 ft | 25 kts | 83° |
| 2026-05-05 17:54 | 48.36183 | 11.79057 | 1485 ft | 26 kts | 83° |
| 2026-05-05 17:55 | 48.36204 | 11.79337 | 1485 ft | 27 kts | 85° |
| 2026-05-05 17:55 | 48.36225 | 11.79623 | 1481 ft | 28 kts | 83° |
| 2026-05-05 17:55 | 48.36248 | 11.79920 | 1483 ft | 29 kts | 83° |
| 2026-05-05 17:55 | 48.36273 | 11.80226 | 1485 ft | 30 kts | 83° |
| 2026-05-05 17:56 | 48.36296 | 11.80533 | 1481 ft | 27 kts | 83° |
| 2026-05-05 17:56 | 48.36319 | 11.80825 | 1482 ft | 29 kts | 83° |
| 2026-05-05 17:56 | 48.36342 | 11.81129 | 1483 ft | 30 kts | 83° |
| 2026-05-05 17:56 | 48.36366 | 11.81442 | 1475 ft | 30 kts | 83° |
| 2026-05-05 17:57 | 48.36386 | 11.81698 | 1485 ft | 21 kts | 84° |
| 2026-05-05 17:57 | 48.36400 | 11.81919 | 1485 ft | 12 kts | 102° |
| 2026-05-05 17:57 | 48.36438 | 11.82004 | 1485 ft | 12 kts | 0° |
| 2026-05-05 17:57 | 48.36529 | 11.81986 | 1481 ft | 14 kts | 352° |
| 2026-05-05 17:58 | 48.36632 | 11.81968 | 1478 ft | 15 kts | 354° |
| 2026-05-05 17:58 | 48.36675 | 11.81932 | 1478 ft | 7 kts | 272° |
| 2026-05-05 17:58 | 48.36674 | 11.81921 | 1479 ft | 0 kts | 262° |
| 2026-05-05 17:58 | 48.36667 | 11.81835 | 1475 ft | 32 kts | 264° |
| 2026-05-05 17:59 | 48.36617 | 11.81157 | 1485 ft | 95 kts | 262° |
| 2026-05-05 17:59 | 48.36519 | 11.79910 | 1481 ft | 142 kts | 263° |
| 2026-05-05 17:59 | 48.36390 | 11.78260 | 1636 ft | 167 kts | 265° |
| 2026-05-05 17:59 | 48.36260 | 11.76508 | 2143 ft | 171 kts | 264° |
| 2026-05-05 18:00 | 48.36133 | 11.74730 | 2766 ft | 172 kts | 266° |
| 2026-05-05 18:00 | 48.35999 | 11.72842 | 3057 ft | 192 kts | 267° |
| 2026-05-05 18:00 | 48.35846 | 11.70730 | 3311 ft | 214 kts | 266° |
| 2026-05-05 18:00 | 48.35726 | 11.68431 | 3850 ft | 223 kts | 277° |
| 2026-05-05 18:01 | 48.36333 | 11.66360 | 4589 ft | 229 kts | 311° |
| 2026-05-05 18:01 | 48.37773 | 11.65065 | 4948 ft | 257 kts | 338° |
| 2026-05-05 18:01 | 48.39554 | 11.64377 | 5609 ft | 270 kts | 346° |
| 2026-05-05 18:01 | 48.41435 | 11.63911 | 6357 ft | 278 kts | 349° |
| 2026-05-05 18:02 | 48.43373 | 11.63486 | 7105 ft | 283 kts | 349° |
| 2026-05-05 18:02 | 48.45333 | 11.63036 | 7887 ft | 287 kts | 348° |
| 2026-05-05 18:02 | 48.47317 | 11.62539 | 8672 ft | 291 kts | 347° |
| 2026-05-05 18:02 | 48.49323 | 11.62000 | 9439 ft | 295 kts | 346° |
| 2026-05-05 18:03 | 48.51358 | 11.61424 | 10142 ft | 300 kts | 346° |
| 2026-05-05 18:03 | 48.53417 | 11.60823 | 10829 ft | 303 kts | 345° |
| 2026-05-05 18:03 | 48.55497 | 11.60210 | 11517 ft | 306 kts | 345° |
| 2026-05-05 18:03 | 48.57572 | 11.59450 | 12176 ft | 310 kts | 338° |
| 2026-05-05 18:04 | 48.59673 | 11.58290 | 12329 ft | 332 kts | 336° |
| 2026-05-05 18:04 | 48.61886 | 11.57014 | 12637 ft | 347 kts | 335° |
| 2026-05-05 18:04 | 48.64157 | 11.55693 | 13236 ft | 353 kts | 337° |
| 2026-05-05 18:04 | 48.66567 | 11.54834 | 13845 ft | 361 kts | 348° |
| 2026-05-05 18:05 | 48.69030 | 11.54277 | 14417 ft | 364 kts | 349° |
| 2026-05-05 18:05 | 48.71550 | 11.53714 | 14987 ft | 368 kts | 349° |
| 2026-05-05 18:05 | 48.74093 | 11.53151 | 15531 ft | 372 kts | 349° |
| 2026-05-05 18:05 | 48.76668 | 11.52586 | 16082 ft | 376 kts | 350° |
| 2026-05-05 18:06 | 48.79270 | 11.52012 | 16653 ft | 379 kts | 350° |
| 2026-05-05 18:06 | 48.81002 | 11.51628 | 17027 ft | 382 kts | 350° |
| 2026-05-05 18:06 | 48.84538 | 11.50837 | 17796 ft | 386 kts | 350° |
| 2026-05-05 18:06 | 48.87215 | 11.50235 | 18330 ft | 390 kts | 350° |
| 2026-05-05 18:07 | 48.89911 | 11.49625 | 18844 ft | 393 kts | 350° |
| 2026-05-05 18:07 | 48.92625 | 11.49017 | 19364 ft | 396 kts | 350° |
| 2026-05-05 18:07 | 48.95368 | 11.48405 | 19886 ft | 400 kts | 351° |
| 2026-05-05 18:07 | 48.98130 | 11.47786 | 20409 ft | 403 kts | 351° |
| 2026-05-05 18:08 | 49.00919 | 11.47160 | 20925 ft | 406 kts | 351° |
| 2026-05-05 18:08 | 49.03724 | 11.46527 | 21421 ft | 409 kts | 351° |
| 2026-05-05 18:08 | 49.06556 | 11.45887 | 21902 ft | 413 kts | 351° |
| 2026-05-05 18:08 | 49.09411 | 11.45240 | 22403 ft | 416 kts | 351° |
| 2026-05-05 18:09 | 49.12279 | 11.44591 | 22907 ft | 419 kts | 351° |
| 2026-05-05 18:09 | 49.15183 | 11.43936 | 23387 ft | 422 kts | 351° |
| 2026-05-05 18:09 | 49.18101 | 11.43275 | 23783 ft | 426 kts | 351° |
| 2026-05-05 18:09 | 49.21047 | 11.42607 | 24165 ft | 429 kts | 351° |
| 2026-05-05 18:10 | 49.24014 | 11.41938 | 24553 ft | 432 kts | 351° |
| 2026-05-05 18:10 | 49.26997 | 11.41264 | 24930 ft | 435 kts | 351° |
| 2026-05-05 18:10 | 49.30000 | 11.40581 | 25307 ft | 438 kts | 351° |
| 2026-05-05 18:10 | 49.33019 | 11.39891 | 25677 ft | 440 kts | 351° |
| 2026-05-05 18:11 | 49.36018 | 11.39206 | 26045 ft | 443 kts | 351° |
| 2026-05-05 18:11 | 49.39077 | 11.38504 | 26407 ft | 446 kts | 351° |
| 2026-05-05 18:11 | 49.42151 | 11.37798 | 26743 ft | 448 kts | 351° |
| 2026-05-05 18:11 | 49.45242 | 11.37088 | 27106 ft | 450 kts | 351° |
| 2026-05-05 18:12 | 49.48346 | 11.36372 | 27459 ft | 453 kts | 351° |
| 2026-05-05 18:12 | 49.51474 | 11.35653 | 27778 ft | 455 kts | 351° |
| 2026-05-05 18:12 | 49.54619 | 11.34931 | 28128 ft | 458 kts | 351° |
| 2026-05-05 18:12 | 49.57783 | 11.34208 | 28462 ft | 460 kts | 351° |
| 2026-05-05 18:13 | 49.60968 | 11.33478 | 28788 ft | 463 kts | 351° |
| 2026-05-05 18:13 | 49.64156 | 11.32743 | 29105 ft | 466 kts | 351° |
| 2026-05-05 18:13 | 49.67371 | 11.32001 | 29537 ft | 466 kts | 352° |
| 2026-05-05 18:13 | 49.70584 | 11.31260 | 29885 ft | 468 kts | 352° |
| 2026-05-05 18:14 | 49.73775 | 11.30523 | 30163 ft | 470 kts | 352° |
| 2026-05-05 18:14 | 49.77060 | 11.29761 | 30480 ft | 471 kts | 351° |
| 2026-05-05 18:14 | 49.80261 | 11.29014 | 30867 ft | 470 kts | 351° |
| 2026-05-05 18:14 | 49.83489 | 11.28257 | 31302 ft | 469 kts | 351° |
| 2026-05-05 18:15 | 49.86710 | 11.27497 | 31706 ft | 468 kts | 351° |
| 2026-05-05 18:15 | 49.89930 | 11.26740 | 32164 ft | 466 kts | 351° |
| 2026-05-05 18:15 | 49.93126 | 11.25993 | 32624 ft | 463 kts | 351° |
| 2026-05-05 18:15 | 49.96310 | 11.25255 | 33057 ft | 462 kts | 351° |
| 2026-05-05 18:16 | 49.99490 | 11.24521 | 33469 ft | 461 kts | 351° |
| 2026-05-05 18:16 | 50.02658 | 11.23783 | 33749 ft | 461 kts | 351° |
| 2026-05-05 18:16 | 50.05829 | 11.23038 | 33797 ft | 462 kts | 352° |
| 2026-05-05 18:17 | 50.12362 | 11.22663 | 33802 ft | 477 kts | 0° |
| 2026-05-05 18:17 | 50.19057 | 11.22708 | 33806 ft | 485 kts | 0° |
| 2026-05-05 18:17 | 50.22431 | 11.22789 | 33926 ft | 486 kts | 5° |
| 2026-05-05 18:18 | 50.25787 | 11.23412 | 34105 ft | 485 kts | 8° |
| 2026-05-05 18:18 | 50.29099 | 11.24090 | 34273 ft | 486 kts | 8° |
| 2026-05-05 18:18 | 50.32452 | 11.24787 | 34447 ft | 486 kts | 8° |
| 2026-05-05 18:18 | 50.35810 | 11.25487 | 34607 ft | 488 kts | 7° |
| 2026-05-05 18:19 | 50.39186 | 11.26190 | 34728 ft | 490 kts | 7° |
| 2026-05-05 18:19 | 50.42575 | 11.26898 | 34857 ft | 492 kts | 7° |
| 2026-05-05 18:19 | 50.45973 | 11.27607 | 35026 ft | 493 kts | 7° |
| 2026-05-05 18:19 | 50.49371 | 11.28314 | 35205 ft | 493 kts | 7° |
| 2026-05-05 18:20 | 50.52769 | 11.29023 | 35380 ft | 493 kts | 7° |
| 2026-05-05 18:20 | 50.55023 | 11.29494 | 35505 ft | 493 kts | 7° |
| 2026-05-05 18:20 | 50.59573 | 11.30446 | 35734 ft | 493 kts | 7° |
| 2026-05-05 18:21 | 50.66383 | 11.31871 | 35796 ft | 493 kts | 7° |
| 2026-05-05 18:21 | 50.73188 | 11.33310 | 35797 ft | 493 kts | 7° |
| 2026-05-05 18:22 | 50.79991 | 11.34752 | 35800 ft | 494 kts | 6° |
| 2026-05-05 18:22 | 50.86819 | 11.36204 | 35797 ft | 496 kts | 6° |
| 2026-05-05 18:23 | 50.93658 | 11.37657 | 35799 ft | 496 kts | 6° |
| 2026-05-05 18:23 | 51.00462 | 11.39109 | 35829 ft | 497 kts | 7° |
| 2026-05-05 18:24 | 51.07319 | 11.40580 | 35830 ft | 497 kts | 6° |
| 2026-05-05 18:24 | 51.14181 | 11.42052 | 35830 ft | 498 kts | 6° |
| 2026-05-05 18:25 | 51.21052 | 11.43524 | 35825 ft | 498 kts | 6° |
| 2026-05-05 18:25 | 51.27917 | 11.45011 | 35833 ft | 498 kts | 6° |
| 2026-05-05 18:26 | 51.34798 | 11.46504 | 35832 ft | 499 kts | 6° |
| 2026-05-05 18:26 | 51.40512 | 11.47746 | 35832 ft | 499 kts | 6° |
| 2026-05-05 18:27 | 51.47380 | 11.49238 | 35840 ft | 499 kts | 6° |
| 2026-05-05 18:27 | 51.54259 | 11.50745 | 35848 ft | 498 kts | 5° |
| 2026-05-05 18:28 | 51.64567 | 11.52997 | 35855 ft | 498 kts | 5° |
| 2026-05-05 18:28 | 51.71435 | 11.54510 | 35853 ft | 498 kts | 5° |
| 2026-05-05 18:29 | 51.78298 | 11.56025 | 35867 ft | 497 kts | 5° |
| 2026-05-05 18:29 | 51.85104 | 11.57529 | 35862 ft | 496 kts | 5° |
| 2026-05-05 18:30 | 51.91954 | 11.59050 | 35859 ft | 496 kts | 5° |
| 2026-05-05 18:30 | 51.98803 | 11.60575 | 35865 ft | 496 kts | 5° |
| 2026-05-05 18:31 | 52.05642 | 11.62113 | 35866 ft | 495 kts | 5° |
| 2026-05-05 18:31 | 52.12469 | 11.63646 | 35870 ft | 495 kts | 5° |
| 2026-05-05 18:32 | 52.19286 | 11.65171 | 35891 ft | 495 kts | 4° |
| 2026-05-05 18:32 | 52.26063 | 11.66699 | 35879 ft | 494 kts | 4° |
| 2026-05-05 18:33 | 52.32874 | 11.68242 | 35880 ft | 494 kts | 4° |
| 2026-05-05 18:33 | 52.39683 | 11.69786 | 35883 ft | 494 kts | 4° |
| 2026-05-05 18:34 | 52.46498 | 11.71339 | 35890 ft | 493 kts | 4° |
| 2026-05-05 18:34 | 52.53293 | 11.72896 | 35891 ft | 493 kts | 4° |
| 2026-05-05 18:35 | 52.60087 | 11.74450 | 35893 ft | 493 kts | 4° |
| 2026-05-05 18:35 | 52.66880 | 11.75998 | 35908 ft | 493 kts | 4° |
| 2026-05-05 18:36 | 52.73672 | 11.77564 | 35900 ft | 493 kts | 4° |
| 2026-05-05 18:36 | 52.80459 | 11.79137 | 35895 ft | 492 kts | 4° |
| 2026-05-05 18:37 | 52.87246 | 11.80718 | 35898 ft | 492 kts | 4° |
| 2026-05-05 18:37 | 52.93990 | 11.82299 | 35897 ft | 492 kts | 4° |
| 2026-05-05 18:38 | 53.00780 | 11.83877 | 35902 ft | 492 kts | 4° |
| 2026-05-05 18:38 | 53.07566 | 11.85465 | 35902 ft | 492 kts | 4° |
| 2026-05-05 18:39 | 53.14352 | 11.87054 | 35903 ft | 492 kts | 4° |
| 2026-05-05 18:39 | 53.21143 | 11.88653 | 35919 ft | 492 kts | 3° |
| 2026-05-05 18:40 | 53.27876 | 11.90249 | 35919 ft | 492 kts | 3° |
| 2026-05-05 18:40 | 53.34656 | 11.91850 | 35914 ft | 491 kts | 3° |
| 2026-05-05 18:41 | 53.41426 | 11.93465 | 35926 ft | 491 kts | 3° |
| 2026-05-05 18:41 | 53.48186 | 11.95087 | 35924 ft | 486 kts | 3° |
| 2026-05-05 18:42 | 53.51509 | 11.95886 | 35536 ft | 479 kts | 3° |
| 2026-05-05 18:42 | 53.54796 | 11.96675 | 34988 ft | 477 kts | 3° |
| 2026-05-05 18:42 | 53.58038 | 11.97450 | 34452 ft | 475 kts | 2° |
| 2026-05-05 18:42 | 53.61347 | 11.98243 | 33914 ft | 473 kts | 2° |
| 2026-05-05 18:43 | 53.64562 | 11.99015 | 33348 ft | 472 kts | 2° |
| 2026-05-05 18:43 | 53.67805 | 11.99795 | 32750 ft | 470 kts | 2° |
| 2026-05-05 18:43 | 53.71082 | 12.00584 | 32156 ft | 468 kts | 2° |
| 2026-05-05 18:43 | 53.74254 | 12.01350 | 31591 ft | 466 kts | 2° |
| 2026-05-05 18:44 | 53.77461 | 12.02126 | 31037 ft | 463 kts | 2° |
| 2026-05-05 18:44 | 53.80641 | 12.02900 | 30489 ft | 461 kts | 3° |
| 2026-05-05 18:44 | 53.83802 | 12.03673 | 29944 ft | 458 kts | 3° |
| 2026-05-05 18:44 | 53.86948 | 12.04443 | 29317 ft | 455 kts | 3° |
| 2026-05-05 18:45 | 53.90065 | 12.05205 | 28726 ft | 452 kts | 2° |
| 2026-05-05 18:45 | 53.93172 | 12.05964 | 28122 ft | 449 kts | 3° |
| 2026-05-05 18:45 | 53.96254 | 12.06720 | 27532 ft | 446 kts | 3° |
| 2026-05-05 18:45 | 53.99320 | 12.07475 | 26953 ft | 443 kts | 3° |
| 2026-05-05 18:46 | 54.02355 | 12.08219 | 26389 ft | 440 kts | 3° |
| 2026-05-05 18:46 | 54.05379 | 12.08958 | 25831 ft | 437 kts | 3° |
| 2026-05-05 18:46 | 54.08376 | 12.09695 | 25288 ft | 434 kts | 3° |
| 2026-05-05 18:46 | 54.11315 | 12.10417 | 24761 ft | 431 kts | 3° |
| 2026-05-05 18:47 | 54.14278 | 12.11145 | 24259 ft | 428 kts | 4° |
| 2026-05-05 18:47 | 54.17216 | 12.11871 | 23744 ft | 426 kts | 3° |
| 2026-05-05 18:47 | 54.20144 | 12.12598 | 23184 ft | 424 kts | 3° |
| 2026-05-05 18:47 | 54.23059 | 12.13321 | 22581 ft | 422 kts | 3° |
| 2026-05-05 18:48 | 54.25955 | 12.14037 | 21994 ft | 420 kts | 3° |
| 2026-05-05 18:48 | 54.28835 | 12.14751 | 21417 ft | 418 kts | 3° |
| 2026-05-05 18:48 | 54.31705 | 12.15465 | 20851 ft | 416 kts | 3° |
| 2026-05-05 18:48 | 54.34568 | 12.16179 | 20298 ft | 414 kts | 4° |
| 2026-05-05 18:49 | 54.37398 | 12.16888 | 19976 ft | 407 kts | 4° |
| 2026-05-05 18:49 | 54.40164 | 12.17589 | 19923 ft | 397 kts | 3° |
| 2026-05-05 18:49 | 54.42962 | 12.18283 | 19928 ft | 417 kts | 3° |
| 2026-05-05 18:49 | 54.45906 | 12.18998 | 19932 ft | 435 kts | 3° |
| 2026-05-05 18:50 | 54.48950 | 12.19742 | 19930 ft | 450 kts | 3° |
| 2026-05-05 18:50 | 54.52086 | 12.20518 | 19931 ft | 458 kts | 4° |
| 2026-05-05 18:50 | 54.55206 | 12.21305 | 19931 ft | 460 kts | 4° |
| 2026-05-05 18:50 | 54.58376 | 12.22120 | 19931 ft | 460 kts | 4° |
| 2026-05-05 18:51 | 54.61547 | 12.22937 | 19934 ft | 461 kts | 4° |
| 2026-05-05 18:51 | 54.64718 | 12.23751 | 19959 ft | 461 kts | 4° |
| 2026-05-05 18:51 | 54.67886 | 12.24558 | 19927 ft | 460 kts | 4° |
| 2026-05-05 18:51 | 54.70989 | 12.25352 | 19929 ft | 441 kts | 4° |
| 2026-05-05 18:52 | 54.73962 | 12.26120 | 19820 ft | 423 kts | 3° |
| 2026-05-05 18:52 | 54.76833 | 12.26858 | 19583 ft | 412 kts | 3° |
| 2026-05-05 18:52 | 54.79644 | 12.27573 | 19180 ft | 406 kts | 3° |
| 2026-05-05 18:52 | 54.82434 | 12.28278 | 18723 ft | 403 kts | 3° |
| 2026-05-05 18:53 | 54.85196 | 12.28976 | 18258 ft | 399 kts | 3° |
| 2026-05-05 18:53 | 54.87934 | 12.29675 | 17723 ft | 396 kts | 3° |
| 2026-05-05 18:53 | 54.90650 | 12.30373 | 17210 ft | 393 kts | 4° |
| 2026-05-05 18:53 | 54.93340 | 12.31169 | 16657 ft | 393 kts | 10° |
| 2026-05-05 18:54 | 54.95890 | 12.32906 | 16128 ft | 395 kts | 22° |
| 2026-05-05 18:54 | 54.98393 | 12.34484 | 15755 ft | 378 kts | 3° |
| 2026-05-05 18:54 | 55.00945 | 12.34636 | 15638 ft | 358 kts | 354° |
| 2026-05-05 18:54 | 55.03391 | 12.34572 | 15503 ft | 345 kts | 354° |
| 2026-05-05 18:55 | 55.05753 | 12.34522 | 15372 ft | 334 kts | 354° |
| 2026-05-05 18:55 | 55.08039 | 12.34524 | 15247 ft | 323 kts | 355° |
| 2026-05-05 18:55 | 55.10263 | 12.34576 | 15020 ft | 317 kts | 355° |
| 2026-05-05 18:55 | 55.12459 | 12.34659 | 14707 ft | 315 kts | 356° |
| 2026-05-05 18:56 | 55.14650 | 12.34761 | 14380 ft | 313 kts | 356° |
| 2026-05-05 18:56 | 55.16820 | 12.34873 | 14064 ft | 311 kts | 356° |
| 2026-05-05 18:56 | 55.18980 | 12.34987 | 13747 ft | 309 kts | 356° |
| 2026-05-05 18:56 | 55.21106 | 12.35097 | 13306 ft | 310 kts | 356° |
| 2026-05-05 18:57 | 55.23257 | 12.35206 | 12800 ft | 306 kts | 357° |
| 2026-05-05 18:57 | 55.25362 | 12.35317 | 12298 ft | 298 kts | 357° |
| 2026-05-05 18:57 | 55.27411 | 12.35426 | 11805 ft | 291 kts | 357° |
| 2026-05-05 18:57 | 55.29450 | 12.35530 | 11013 ft | 296 kts | 358° |
| 2026-05-05 18:58 | 55.31524 | 12.35633 | 10214 ft | 300 kts | 358° |
| 2026-05-05 18:58 | 55.33618 | 12.35733 | 9401 ft | 302 kts | 359° |
| 2026-05-05 18:58 | 55.35730 | 12.35834 | 8560 ft | 304 kts | 359° |
| 2026-05-05 18:58 | 55.37843 | 12.35942 | 7722 ft | 304 kts | 0° |
| 2026-05-05 18:59 | 55.39963 | 12.36052 | 6896 ft | 303 kts | 1° |
| 2026-05-05 18:59 | 55.42070 | 12.36174 | 6036 ft | 302 kts | 4° |
| 2026-05-05 18:59 | 55.43990 | 12.37101 | 5546 ft | 286 kts | 29° |
| 2026-05-05 18:59 | 55.45621 | 12.39148 | 4621 ft | 290 kts | 38° |
| 2026-05-05 19:00 | 55.47165 | 12.41451 | 3670 ft | 291 kts | 41° |
| 2026-05-05 19:00 | 55.48672 | 12.43837 | 2741 ft | 291 kts | 41° |
| 2026-05-05 19:00 | 55.50111 | 12.46263 | 2310 ft | 275 kts | 43° |
| 2026-05-05 19:00 | 55.51467 | 12.48439 | 2072 ft | 255 kts | 40° |
| 2026-05-05 19:01 | 55.52772 | 12.50435 | 1758 ft | 241 kts | 39° |
| 2026-05-05 19:01 | 55.54011 | 12.52331 | 1430 ft | 229 kts | 39° |
| 2026-05-05 19:01 | 55.55184 | 12.54134 | 1132 ft | 218 kts | 40° |
| 2026-05-05 19:01 | 55.56283 | 12.55827 | 828 ft | 198 kts | 39° |
| 2026-05-05 19:02 | 55.57265 | 12.57342 | 594 ft | 177 kts | 39° |
| 2026-05-05 19:02 | 55.58147 | 12.58701 | 358 ft | 162 kts | 38° |
| 2026-05-05 19:02 | 55.58940 | 12.59921 | 105 ft | 143 kts | 37° |
| 2026-05-05 19:02 | 55.59652 | 12.61012 | 20 ft | 123 kts | 40° |
| 2026-05-05 19:03 | 55.60230 | 12.61907 | 18 ft | 99 kts | 41° |
| 2026-05-05 19:03 | 55.60681 | 12.62618 | 20 ft | 59 kts | 41° |
| 2026-05-05 19:03 | 55.60924 | 12.62848 | 18 ft | 25 kts | 11° |
| 2026-05-05 19:03 | 55.61048 | 12.62892 | 17 ft | 5 kts | 12° |
| 2026-05-05 19:04 | 55.61066 | 12.62898 | 17 ft | 10 kts | 12° |
| 2026-05-05 19:04 | 55.61161 | 12.62975 | 17 ft | 17 kts | 40° |
| 2026-05-05 19:04 | 55.61258 | 12.63119 | 17 ft | 19 kts | 40° |
| 2026-05-05 19:05 | 55.61364 | 12.63286 | 17 ft | 22 kts | 42° |
| 2026-05-05 19:05 | 55.61482 | 12.63473 | 17 ft | 24 kts | 41° |
| 2026-05-05 19:05 | 55.61614 | 12.63675 | 18 ft | 26 kts | 40° |
| 2026-05-05 19:05 | 55.61751 | 12.63885 | 17 ft | 25 kts | 43° |
| 2026-05-05 19:06 | 55.61890 | 12.64087 | 18 ft | 27 kts | 29° |
| 2026-05-05 19:06 | 55.62062 | 12.64233 | 17 ft | 26 kts | 24° |
| 2026-05-05 19:06 | 55.62148 | 12.64304 | 17 ft | 1 kts | 25° |
| 2026-05-05 19:06 | 55.62150 | 12.64305 | 17 ft | 0 kts | 25° |
| 2026-05-05 19:08 | 55.62154 | 12.64309 | 16 ft | 3 kts | 25° |
| 2026-05-05 19:08 | 55.62195 | 12.64343 | 15 ft | 9 kts | 25° |
| 2026-05-05 19:08 | 55.62268 | 12.64392 | 16 ft | 13 kts | 14° |
| 2026-05-05 19:09 | 55.62352 | 12.64432 | 17 ft | 8 kts | 16° |
| 2026-05-05 19:09 | 55.62364 | 12.64437 | 17 ft | 0 kts | 16° |
| 2026-05-05 19:11 | 55.62371 | 12.64441 | 17 ft | 3 kts | 16° |
| 2026-05-05 19:12 | 55.62398 | 12.64455 | 17 ft | 6 kts | 16° |
| 2026-05-05 19:12 | 55.62446 | 12.64479 | 17 ft | 9 kts | 16° |
| 2026-05-05 19:12 | 55.62505 | 12.64451 | 18 ft | 11 kts | 306° |
| 2026-05-05 19:12 | 55.62551 | 12.64325 | 17 ft | 14 kts | 304° |
| 2026-05-05 19:13 | 55.62631 | 12.64290 | 18 ft | 15 kts | 27° |
| 2026-05-05 19:13 | 55.62680 | 12.64349 | 18 ft | 6 kts | 90° |
| 2026-05-05 19:13 | 55.62673 | 12.64412 | 19 ft | 3 kts | 101° |
| 2026-05-05 19:13 | 55.62671 | 12.64433 | 17 ft | 2 kts | 101° |
| 2026-05-05 19:14 | 55.62670 | 12.64439 | 17 ft | 0 kts | 101° |